sensor_id;sensor_type;location;lat;lon;timestamp;P1;durP1;ratioP1;P2;durP2;ratioP2
24206;SDS011;12351;52.284;9.160;2024-02-16T00:00:20;1.62;;;0.88;;
24206;SDS011;12351;52.284;9.160;2024-02-16T00:03:10;3.08;;;1.25;;
24206;SDS011;12351;52.284;9.160;2024-02-16T00:05:58;3.05;;;1.00;;
24206;SDS011;12351;52.284;9.160;2024-02-16T00:08:45;4.10;;;0.90;;
24206;SDS011;12351;52.284;9.160;2024-02-16T00:11:32;3.45;;;1.15;;
24206;SDS011;12351;52.284;9.160;2024-02-16T00:14:19;3.45;;;1.07;;
24206;SDS011;12351;52.284;9.160;2024-02-16T00:17:06;1.80;;;0.90;;
24206;SDS011;12351;52.284;9.160;2024-02-16T00:19:55;1.57;;;0.88;;
24206;SDS011;12351;52.284;9.160;2024-02-16T00:22:43;2.98;;;0.82;;
24206;SDS011;12351;52.284;9.160;2024-02-16T00:25:30;2.17;;;1.00;;
24206;SDS011;12351;52.284;9.160;2024-02-16T00:28:17;2.47;;;1.25;;
24206;SDS011;12351;52.284;9.160;2024-02-16T00:31:04;3.05;;;1.02;;
24206;SDS011;12351;52.284;9.160;2024-02-16T00:33:52;3.17;;;1.10;;
24206;SDS011;12351;52.284;9.160;2024-02-16T00:36:39;2.98;;;1.10;;
24206;SDS011;12351;52.284;9.160;2024-02-16T00:39:26;1.72;;;0.95;;
24206;SDS011;12351;52.284;9.160;2024-02-16T00:42:14;4.22;;;1.10;;
24206;SDS011;12351;52.284;9.160;2024-02-16T00:45:01;2.62;;;0.90;;
24206;SDS011;12351;52.284;9.160;2024-02-16T00:47:48;2.62;;;1.27;;
24206;SDS011;12351;52.284;9.160;2024-02-16T00:50:36;1.62;;;0.90;;
24206;SDS011;12351;52.284;9.160;2024-02-16T00:53:23;3.65;;;1.20;;
24206;SDS011;12351;52.284;9.160;2024-02-16T00:56:11;3.20;;;1.07;;
24206;SDS011;12351;52.284;9.160;2024-02-16T00:58:58;3.95;;;1.00;;
24206;SDS011;12351;52.284;9.160;2024-02-16T01:01:46;2.10;;;1.00;;
24206;SDS011;12351;52.284;9.160;2024-02-16T01:04:33;3.40;;;0.88;;
24206;SDS011;12351;52.284;9.160;2024-02-16T01:07:20;3.27;;;0.90;;
24206;SDS011;12351;52.284;9.160;2024-02-16T01:10:07;4.87;;;1.00;;
24206;SDS011;12351;52.284;9.160;2024-02-16T01:12:55;2.55;;;0.90;;
24206;SDS011;12351;52.284;9.160;2024-02-16T01:15:42;3.40;;;1.20;;
24206;SDS011;12351;52.284;9.160;2024-02-16T01:18:30;3.65;;;1.00;;
24206;SDS011;12351;52.284;9.160;2024-02-16T01:21:17;3.47;;;1.07;;
24206;SDS011;12351;52.284;9.160;2024-02-16T01:24:06;5.15;;;1.32;;
24206;SDS011;12351;52.284;9.160;2024-02-16T01:26:54;2.55;;;1.20;;
24206;SDS011;12351;52.284;9.160;2024-02-16T01:29:42;2.37;;;0.88;;
24206;SDS011;12351;52.284;9.160;2024-02-16T01:32:31;2.08;;;0.98;;
24206;SDS011;12351;52.284;9.160;2024-02-16T01:35:20;3.75;;;1.17;;
24206;SDS011;12351;52.284;9.160;2024-02-16T01:38:06;1.90;;;1.00;;
24206;SDS011;12351;52.284;9.160;2024-02-16T01:40:54;3.92;;;1.22;;
24206;SDS011;12351;52.284;9.160;2024-02-16T01:43:41;2.40;;;1.00;;
24206;SDS011;12351;52.284;9.160;2024-02-16T01:46:28;3.62;;;1.10;;
24206;SDS011;12351;52.284;9.160;2024-02-16T01:49:15;2.47;;;0.95;;
24206;SDS011;12351;52.284;9.160;2024-02-16T01:52:02;3.42;;;1.10;;
24206;SDS011;12351;52.284;9.160;2024-02-16T01:54:50;2.50;;;0.90;;
24206;SDS011;12351;52.284;9.160;2024-02-16T02:00:27;2.25;;;1.10;;
24206;SDS011;12351;52.284;9.160;2024-02-16T02:03:14;2.77;;;1.00;;
24206;SDS011;12351;52.284;9.160;2024-02-16T02:06:03;2.62;;;0.90;;
24206;SDS011;12351;52.284;9.160;2024-02-16T02:08:50;1.87;;;0.80;;
24206;SDS011;12351;52.284;9.160;2024-02-16T02:11:37;1.55;;;1.10;;
24206;SDS011;12351;52.284;9.160;2024-02-16T02:14:26;1.45;;;0.93;;
24206;SDS011;12351;52.284;9.160;2024-02-16T02:17:19;1.47;;;0.82;;
24206;SDS011;12351;52.284;9.160;2024-02-16T02:20:07;5.55;;;1.12;;
24206;SDS011;12351;52.284;9.160;2024-02-16T02:22:56;2.50;;;1.10;;
24206;SDS011;12351;52.284;9.160;2024-02-16T02:25:43;2.52;;;0.90;;
24206;SDS011;12351;52.284;9.160;2024-02-16T02:28:30;4.35;;;0.98;;
24206;SDS011;12351;52.284;9.160;2024-02-16T02:31:18;2.55;;;0.80;;
24206;SDS011;12351;52.284;9.160;2024-02-16T02:34:07;4.58;;;1.20;;
24206;SDS011;12351;52.284;9.160;2024-02-16T02:36:54;3.10;;;1.10;;
24206;SDS011;12351;52.284;9.160;2024-02-16T02:39:42;2.75;;;1.00;;
24206;SDS011;12351;52.284;9.160;2024-02-16T02:42:29;2.33;;;0.90;;
24206;SDS011;12351;52.284;9.160;2024-02-16T02:45:16;2.42;;;0.80;;
24206;SDS011;12351;52.284;9.160;2024-02-16T02:48:04;2.02;;;0.88;;
24206;SDS011;12351;52.284;9.160;2024-02-16T02:50:51;1.22;;;0.90;;
24206;SDS011;12351;52.284;9.160;2024-02-16T02:53:39;2.45;;;1.07;;
24206;SDS011;12351;52.284;9.160;2024-02-16T02:56:26;3.27;;;0.88;;
24206;SDS011;12351;52.284;9.160;2024-02-16T02:59:16;2.37;;;0.78;;
24206;SDS011;12351;52.284;9.160;2024-02-16T03:02:04;2.35;;;1.00;;
24206;SDS011;12351;52.284;9.160;2024-02-16T03:04:51;3.33;;;1.00;;
24206;SDS011;12351;52.284;9.160;2024-02-16T03:07:38;2.65;;;1.00;;
24206;SDS011;12351;52.284;9.160;2024-02-16T03:10:25;2.37;;;0.93;;
24206;SDS011;12351;52.284;9.160;2024-02-16T03:13:14;3.15;;;0.90;;
24206;SDS011;12351;52.284;9.160;2024-02-16T03:16:02;2.72;;;1.00;;
24206;SDS011;12351;52.284;9.160;2024-02-16T03:18:49;2.33;;;1.07;;
24206;SDS011;12351;52.284;9.160;2024-02-16T03:21:36;2.50;;;0.90;;
24206;SDS011;12351;52.284;9.160;2024-02-16T03:24:24;2.72;;;0.90;;
24206;SDS011;12351;52.284;9.160;2024-02-16T03:27:11;2.00;;;0.88;;
24206;SDS011;12351;52.284;9.160;2024-02-16T03:29:59;2.45;;;0.93;;
24206;SDS011;12351;52.284;9.160;2024-02-16T03:32:48;2.10;;;0.80;;
24206;SDS011;12351;52.284;9.160;2024-02-16T03:35:37;1.80;;;0.80;;
24206;SDS011;12351;52.284;9.160;2024-02-16T03:38:25;2.17;;;1.05;;
24206;SDS011;12351;52.284;9.160;2024-02-16T03:44:01;5.12;;;1.05;;
24206;SDS011;12351;52.284;9.160;2024-02-16T03:46:48;0.72;;;0.70;;
24206;SDS011;12351;52.284;9.160;2024-02-16T03:49:35;2.17;;;1.02;;
24206;SDS011;12351;52.284;9.160;2024-02-16T03:52:23;1.77;;;0.90;;
24206;SDS011;12351;52.284;9.160;2024-02-16T03:55:10;2.00;;;0.85;;
24206;SDS011;12351;52.284;9.160;2024-02-16T03:57:57;2.87;;;0.82;;
24206;SDS011;12351;52.284;9.160;2024-02-16T04:00:45;1.75;;;0.80;;
24206;SDS011;12351;52.284;9.160;2024-02-16T04:03:33;1.27;;;0.90;;
24206;SDS011;12351;52.284;9.160;2024-02-16T04:06:21;3.25;;;1.27;;
24206;SDS011;12351;52.284;9.160;2024-02-16T04:09:08;2.75;;;1.15;;
24206;SDS011;12351;52.284;9.160;2024-02-16T04:11:55;3.50;;;0.95;;
24206;SDS011;12351;52.284;9.160;2024-02-16T04:14:42;2.17;;;1.20;;
24206;SDS011;12351;52.284;9.160;2024-02-16T04:17:29;1.72;;;0.80;;
24206;SDS011;12351;52.284;9.160;2024-02-16T04:20:18;2.58;;;0.98;;
24206;SDS011;12351;52.284;9.160;2024-02-16T04:23:05;1.95;;;1.00;;
24206;SDS011;12351;52.284;9.160;2024-02-16T04:25:54;2.92;;;0.98;;
24206;SDS011;12351;52.284;9.160;2024-02-16T04:28:42;3.12;;;0.93;;
24206;SDS011;12351;52.284;9.160;2024-02-16T04:31:30;5.05;;;1.10;;
24206;SDS011;12351;52.284;9.160;2024-02-16T04:34:18;4.83;;;1.07;;
24206;SDS011;12351;52.284;9.160;2024-02-16T04:37:06;2.35;;;1.00;;
24206;SDS011;12351;52.284;9.160;2024-02-16T04:39:53;1.77;;;1.10;;
24206;SDS011;12351;52.284;9.160;2024-02-16T04:42:42;1.52;;;0.90;;
24206;SDS011;12351;52.284;9.160;2024-02-16T04:45:29;1.52;;;0.90;;
24206;SDS011;12351;52.284;9.160;2024-02-16T04:48:16;1.12;;;0.80;;
24206;SDS011;12351;52.284;9.160;2024-02-16T04:51:04;2.47;;;1.00;;
24206;SDS011;12351;52.284;9.160;2024-02-16T04:53:50;2.45;;;0.88;;
24206;SDS011;12351;52.284;9.160;2024-02-16T04:56:37;2.15;;;1.07;;
24206;SDS011;12351;52.284;9.160;2024-02-16T04:59:25;1.37;;;0.98;;
24206;SDS011;12351;52.284;9.160;2024-02-16T05:02:13;3.33;;;1.00;;
24206;SDS011;12351;52.284;9.160;2024-02-16T05:05:00;2.37;;;1.17;;
24206;SDS011;12351;52.284;9.160;2024-02-16T05:07:48;3.05;;;0.90;;
24206;SDS011;12351;52.284;9.160;2024-02-16T05:10:36;2.05;;;0.93;;
24206;SDS011;12351;52.284;9.160;2024-02-16T05:13:23;1.65;;;0.90;;
24206;SDS011;12351;52.284;9.160;2024-02-16T05:16:11;1.82;;;1.10;;
24206;SDS011;12351;52.284;9.160;2024-02-16T05:18:58;3.10;;;1.00;;
24206;SDS011;12351;52.284;9.160;2024-02-16T05:21:46;3.02;;;1.00;;
24206;SDS011;12351;52.284;9.160;2024-02-16T05:24:35;2.75;;;1.10;;
24206;SDS011;12351;52.284;9.160;2024-02-16T05:27:22;3.65;;;0.98;;
24206;SDS011;12351;52.284;9.160;2024-02-16T05:30:10;1.85;;;0.70;;
24206;SDS011;12351;52.284;9.160;2024-02-16T05:32:59;1.55;;;0.95;;
24206;SDS011;12351;52.284;9.160;2024-02-16T05:35:48;1.98;;;0.90;;
24206;SDS011;12351;52.284;9.160;2024-02-16T05:38:37;2.77;;;1.05;;
24206;SDS011;12351;52.284;9.160;2024-02-16T05:41:25;3.05;;;1.00;;
24206;SDS011;12351;52.284;9.160;2024-02-16T05:44:13;1.65;;;1.02;;
24206;SDS011;12351;52.284;9.160;2024-02-16T05:47:00;2.20;;;0.95;;
24206;SDS011;12351;52.284;9.160;2024-02-16T05:49:48;3.12;;;1.25;;
24206;SDS011;12351;52.284;9.160;2024-02-16T05:52:35;1.60;;;0.95;;
24206;SDS011;12351;52.284;9.160;2024-02-16T05:55:22;2.87;;;1.00;;
24206;SDS011;12351;52.284;9.160;2024-02-16T05:58:10;3.00;;;1.00;;
24206;SDS011;12351;52.284;9.160;2024-02-16T06:00:57;2.58;;;0.80;;
24206;SDS011;12351;52.284;9.160;2024-02-16T06:06:35;2.52;;;0.98;;
24206;SDS011;12351;52.284;9.160;2024-02-16T06:09:23;3.70;;;1.10;;
24206;SDS011;12351;52.284;9.160;2024-02-16T06:12:13;1.62;;;1.07;;
24206;SDS011;12351;52.284;9.160;2024-02-16T06:15:04;2.77;;;1.17;;
24206;SDS011;12351;52.284;9.160;2024-02-16T06:17:52;1.90;;;0.95;;
24206;SDS011;12351;52.284;9.160;2024-02-16T06:20:39;3.98;;;1.22;;
24206;SDS011;12351;52.284;9.160;2024-02-16T06:23:26;2.95;;;1.22;;
24206;SDS011;12351;52.284;9.160;2024-02-16T06:26:14;2.50;;;1.00;;
24206;SDS011;12351;52.284;9.160;2024-02-16T06:29:01;2.95;;;1.22;;
24206;SDS011;12351;52.284;9.160;2024-02-16T06:31:48;2.65;;;0.98;;
24206;SDS011;12351;52.284;9.160;2024-02-16T06:34:38;3.02;;;1.07;;
24206;SDS011;12351;52.284;9.160;2024-02-16T06:37:26;2.95;;;0.88;;
24206;SDS011;12351;52.284;9.160;2024-02-16T06:40:13;1.00;;;0.90;;
24206;SDS011;12351;52.284;9.160;2024-02-16T06:43:02;1.12;;;0.80;;
24206;SDS011;12351;52.284;9.160;2024-02-16T06:45:50;2.27;;;1.32;;
24206;SDS011;12351;52.284;9.160;2024-02-16T06:48:39;2.35;;;1.32;;
24206;SDS011;12351;52.284;9.160;2024-02-16T06:51:26;2.17;;;1.20;;
24206;SDS011;12351;52.284;9.160;2024-02-16T06:54:13;2.30;;;1.22;;
24206;SDS011;12351;52.284;9.160;2024-02-16T06:57:00;1.90;;;1.15;;
24206;SDS011;12351;52.284;9.160;2024-02-16T06:59:47;2.05;;;1.25;;
24206;SDS011;12351;52.284;9.160;2024-02-16T07:02:35;1.10;;;0.95;;
24206;SDS011;12351;52.284;9.160;2024-02-16T07:05:22;2.70;;;0.82;;
24206;SDS011;12351;52.284;9.160;2024-02-16T07:08:10;3.12;;;1.27;;
24206;SDS011;12351;52.284;9.160;2024-02-16T07:10:57;2.05;;;1.10;;
24206;SDS011;12351;52.284;9.160;2024-02-16T07:13:44;2.35;;;1.10;;
24206;SDS011;12351;52.284;9.160;2024-02-16T07:16:32;2.00;;;0.82;;
24206;SDS011;12351;52.284;9.160;2024-02-16T07:19:18;4.03;;;1.10;;
24206;SDS011;12351;52.284;9.160;2024-02-16T07:22:06;1.80;;;1.00;;
24206;SDS011;12351;52.284;9.160;2024-02-16T07:24:53;2.02;;;0.90;;
24206;SDS011;12351;52.284;9.160;2024-02-16T07:27:40;1.80;;;1.00;;
24206;SDS011;12351;52.284;9.160;2024-02-16T07:30:27;3.15;;;1.10;;
24206;SDS011;12351;52.284;9.160;2024-02-16T07:33:15;2.12;;;1.20;;
24206;SDS011;12351;52.284;9.160;2024-02-16T07:36:02;2.42;;;1.10;;
24206;SDS011;12351;52.284;9.160;2024-02-16T07:38:50;1.35;;;0.85;;
24206;SDS011;12351;52.284;9.160;2024-02-16T07:41:37;1.55;;;0.80;;
24206;SDS011;12351;52.284;9.160;2024-02-16T07:44:25;1.90;;;1.02;;
24206;SDS011;12351;52.284;9.160;2024-02-16T07:47:14;2.05;;;0.80;;
24206;SDS011;12351;52.284;9.160;2024-02-16T07:50:01;2.60;;;1.05;;
24206;SDS011;12351;52.284;9.160;2024-02-16T07:52:50;2.95;;;1.10;;
24206;SDS011;12351;52.284;9.160;2024-02-16T07:55:37;1.30;;;0.98;;
24206;SDS011;12351;52.284;9.160;2024-02-16T07:58:24;2.42;;;1.05;;
24206;SDS011;12351;52.284;9.160;2024-02-16T08:01:12;1.47;;;1.00;;
24206;SDS011;12351;52.284;9.160;2024-02-16T08:04:00;2.67;;;0.95;;
24206;SDS011;12351;52.284;9.160;2024-02-16T08:06:48;2.98;;;1.40;;
24206;SDS011;12351;52.284;9.160;2024-02-16T08:09:35;2.45;;;1.02;;
24206;SDS011;12351;52.284;9.160;2024-02-16T08:12:22;3.33;;;1.20;;
24206;SDS011;12351;52.284;9.160;2024-02-16T08:15:11;3.12;;;1.02;;
24206;SDS011;12351;52.284;9.160;2024-02-16T08:17:58;2.22;;;0.95;;
24206;SDS011;12351;52.284;9.160;2024-02-16T08:20:45;2.17;;;0.80;;
24206;SDS011;12351;52.284;9.160;2024-02-16T08:23:32;2.80;;;1.07;;
24206;SDS011;12351;52.284;9.160;2024-02-16T08:26:19;1.20;;;0.88;;
24206;SDS011;12351;52.284;9.160;2024-02-16T08:29:06;3.98;;;0.95;;
24206;SDS011;12351;52.284;9.160;2024-02-16T08:31:54;3.50;;;1.20;;
24206;SDS011;12351;52.284;9.160;2024-02-16T08:34:41;2.67;;;1.20;;
24206;SDS011;12351;52.284;9.160;2024-02-16T08:37:29;2.22;;;1.30;;
24206;SDS011;12351;52.284;9.160;2024-02-16T08:40:16;2.80;;;1.02;;
24206;SDS011;12351;52.284;9.160;2024-02-16T08:43:05;2.90;;;1.40;;
24206;SDS011;12351;52.284;9.160;2024-02-16T08:45:52;3.17;;;1.10;;
24206;SDS011;12351;52.284;9.160;2024-02-16T08:48:39;1.75;;;0.90;;
24206;SDS011;12351;52.284;9.160;2024-02-16T08:51:26;1.57;;;1.15;;
24206;SDS011;12351;52.284;9.160;2024-02-16T08:54:14;2.40;;;1.10;;
24206;SDS011;12351;52.284;9.160;2024-02-16T08:57:02;1.90;;;0.90;;
24206;SDS011;12351;52.284;9.160;2024-02-16T08:59:50;4.35;;;1.25;;
24206;SDS011;12351;52.284;9.160;2024-02-16T09:02:38;2.90;;;1.12;;
24206;SDS011;12351;52.284;9.160;2024-02-16T09:05:25;5.20;;;1.22;;
24206;SDS011;12351;52.284;9.160;2024-02-16T09:08:12;3.40;;;1.20;;
24206;SDS011;12351;52.284;9.160;2024-02-16T09:10:59;2.33;;;1.05;;
24206;SDS011;12351;52.284;9.160;2024-02-16T09:13:48;2.40;;;0.90;;
24206;SDS011;12351;52.284;9.160;2024-02-16T09:16:38;3.12;;;1.20;;
24206;SDS011;12351;52.284;9.160;2024-02-16T09:19:25;2.25;;;1.10;;
24206;SDS011;12351;52.284;9.160;2024-02-16T09:22:12;3.10;;;1.07;;
24206;SDS011;12351;52.284;9.160;2024-02-16T09:24:59;3.17;;;1.30;;
24206;SDS011;12351;52.284;9.160;2024-02-16T09:27:47;1.85;;;1.10;;
24206;SDS011;12351;52.284;9.160;2024-02-16T09:33:23;2.98;;;1.47;;
24206;SDS011;12351;52.284;9.160;2024-02-16T09:36:14;2.33;;;1.25;;
24206;SDS011;12351;52.284;9.160;2024-02-16T09:39:01;1.85;;;1.17;;
24206;SDS011;12351;52.284;9.160;2024-02-16T09:41:49;1.32;;;1.10;;
24206;SDS011;12351;52.284;9.160;2024-02-16T09:44:38;2.83;;;1.30;;
24206;SDS011;12351;52.284;9.160;2024-02-16T09:47:27;2.25;;;1.40;;
24206;SDS011;12351;52.284;9.160;2024-02-16T09:50:17;3.22;;;1.20;;
24206;SDS011;12351;52.284;9.160;2024-02-16T09:53:06;2.70;;;1.20;;
24206;SDS011;12351;52.284;9.160;2024-02-16T09:55:55;2.65;;;1.10;;
24206;SDS011;12351;52.284;9.160;2024-02-16T09:58:43;1.50;;;1.05;;
24206;SDS011;12351;52.284;9.160;2024-02-16T10:01:30;2.77;;;1.40;;
24206;SDS011;12351;52.284;9.160;2024-02-16T10:04:18;1.55;;;1.30;;
24206;SDS011;12351;52.284;9.160;2024-02-16T10:07:08;3.35;;;1.22;;
24206;SDS011;12351;52.284;9.160;2024-02-16T10:09:55;2.77;;;1.30;;
24206;SDS011;12351;52.284;9.160;2024-02-16T10:12:42;2.15;;;1.30;;
24206;SDS011;12351;52.284;9.160;2024-02-16T10:15:31;2.85;;;1.32;;
24206;SDS011;12351;52.284;9.160;2024-02-16T10:18:19;2.77;;;1.40;;
24206;SDS011;12351;52.284;9.160;2024-02-16T10:21:07;2.05;;;1.30;;
24206;SDS011;12351;52.284;9.160;2024-02-16T10:23:56;1.77;;;1.10;;
24206;SDS011;12351;52.284;9.160;2024-02-16T10:26:44;3.10;;;1.35;;
24206;SDS011;12351;52.284;9.160;2024-02-16T10:29:31;4.10;;;1.40;;
24206;SDS011;12351;52.284;9.160;2024-02-16T10:32:20;1.92;;;1.30;;
24206;SDS011;12351;52.284;9.160;2024-02-16T10:35:08;1.98;;;1.30;;
24206;SDS011;12351;52.284;9.160;2024-02-16T10:37:57;2.83;;;1.25;;
24206;SDS011;12351;52.284;9.160;2024-02-16T10:40:46;2.62;;;1.30;;
24206;SDS011;12351;52.284;9.160;2024-02-16T10:43:34;3.65;;;1.30;;
24206;SDS011;12351;52.284;9.160;2024-02-16T10:46:22;2.52;;;1.37;;
24206;SDS011;12351;52.284;9.160;2024-02-16T10:49:09;2.58;;;1.30;;
24206;SDS011;12351;52.284;9.160;2024-02-16T10:51:57;7.00;;;1.45;;
24206;SDS011;12351;52.284;9.160;2024-02-16T10:54:45;3.58;;;1.47;;
24206;SDS011;12351;52.284;9.160;2024-02-16T10:57:35;3.25;;;1.55;;
24206;SDS011;12351;52.284;9.160;2024-02-16T11:00:22;3.27;;;1.30;;
24206;SDS011;12351;52.284;9.160;2024-02-16T11:03:10;3.02;;;1.50;;
24206;SDS011;12351;52.284;9.160;2024-02-16T11:05:59;2.77;;;1.30;;
24206;SDS011;12351;52.284;9.160;2024-02-16T11:08:48;2.90;;;1.30;;
24206;SDS011;12351;52.284;9.160;2024-02-16T11:11:36;3.70;;;1.57;;
24206;SDS011;12351;52.284;9.160;2024-02-16T11:14:24;2.75;;;1.40;;
24206;SDS011;12351;52.284;9.160;2024-02-16T11:17:16;3.67;;;1.60;;
24206;SDS011;12351;52.284;9.160;2024-02-16T11:20:06;3.37;;;1.52;;
24206;SDS011;12351;52.284;9.160;2024-02-16T11:23:04;2.98;;;1.37;;
24206;SDS011;12351;52.284;9.160;2024-02-16T11:28:34;5.53;;;1.77;;
24206;SDS011;12351;52.284;9.160;2024-02-16T11:31:22;3.08;;;1.52;;
24206;SDS011;12351;52.284;9.160;2024-02-16T11:34:10;3.10;;;1.80;;
24206;SDS011;12351;52.284;9.160;2024-02-16T11:37:02;3.58;;;1.70;;
24206;SDS011;12351;52.284;9.160;2024-02-16T11:39:55;2.58;;;1.60;;
24206;SDS011;12351;52.284;9.160;2024-02-16T11:42:40;2.77;;;1.50;;
24206;SDS011;12351;52.284;9.160;2024-02-16T11:45:33;4.70;;;2.10;;
24206;SDS011;12351;52.284;9.160;2024-02-16T11:48:22;6.20;;;1.80;;
24206;SDS011;12351;52.284;9.160;2024-02-16T11:51:14;2.87;;;1.65;;
24206;SDS011;12351;52.284;9.160;2024-02-16T11:54:04;2.50;;;1.70;;
24206;SDS011;12351;52.284;9.160;2024-02-16T11:56:54;8.08;;;1.98;;
24206;SDS011;12351;52.284;9.160;2024-02-16T11:59:41;4.05;;;1.92;;
24206;SDS011;12351;52.284;9.160;2024-02-16T12:02:28;3.42;;;1.60;;
24206;SDS011;12351;52.284;9.160;2024-02-16T12:05:18;3.40;;;1.87;;
24206;SDS011;12351;52.284;9.160;2024-02-16T12:08:06;3.58;;;2.10;;
24206;SDS011;12351;52.284;9.160;2024-02-16T12:10:53;5.65;;;2.02;;
24206;SDS011;12351;52.284;9.160;2024-02-16T12:13:41;4.50;;;1.90;;
24206;SDS011;12351;52.284;9.160;2024-02-16T12:16:30;6.15;;;2.10;;
24206;SDS011;12351;52.284;9.160;2024-02-16T12:19:18;5.62;;;1.77;;
24206;SDS011;12351;52.284;9.160;2024-02-16T12:22:07;5.00;;;1.92;;
24206;SDS011;12351;52.284;9.160;2024-02-16T12:24:54;4.20;;;2.00;;
24206;SDS011;12351;52.284;9.160;2024-02-16T12:27:41;4.50;;;2.00;;
24206;SDS011;12351;52.284;9.160;2024-02-16T12:30:28;4.90;;;1.98;;
24206;SDS011;12351;52.284;9.160;2024-02-16T12:33:15;6.75;;;2.00;;
24206;SDS011;12351;52.284;9.160;2024-02-16T12:36:02;3.67;;;1.98;;
24206;SDS011;12351;52.284;9.160;2024-02-16T12:38:50;3.90;;;1.90;;
24206;SDS011;12351;52.284;9.160;2024-02-16T12:41:37;5.47;;;2.00;;
24206;SDS011;12351;52.284;9.160;2024-02-16T12:44:27;3.87;;;1.90;;
24206;SDS011;12351;52.284;9.160;2024-02-16T12:47:15;3.00;;;2.05;;
24206;SDS011;12351;52.284;9.160;2024-02-16T12:50:02;4.22;;;1.90;;
24206;SDS011;12351;52.284;9.160;2024-02-16T12:52:50;3.70;;;2.00;;
24206;SDS011;12351;52.284;9.160;2024-02-16T12:55:37;5.42;;;2.10;;
24206;SDS011;12351;52.284;9.160;2024-02-16T12:58:24;5.15;;;2.30;;
24206;SDS011;12351;52.284;9.160;2024-02-16T13:01:12;5.80;;;2.30;;
24206;SDS011;12351;52.284;9.160;2024-02-16T13:04:01;4.95;;;2.17;;
24206;SDS011;12351;52.284;9.160;2024-02-16T13:06:56;7.55;;;1.95;;
24206;SDS011;12351;52.284;9.160;2024-02-16T13:09:44;8.95;;;2.30;;
24206;SDS011;12351;52.284;9.160;2024-02-16T13:12:31;4.95;;;2.35;;
24206;SDS011;12351;52.284;9.160;2024-02-16T13:15:19;6.92;;;2.25;;
24206;SDS011;12351;52.284;9.160;2024-02-16T13:18:09;4.05;;;2.30;;
24206;SDS011;12351;52.284;9.160;2024-02-16T13:20:56;4.30;;;2.30;;
24206;SDS011;12351;52.284;9.160;2024-02-16T13:23:44;4.45;;;2.42;;
24206;SDS011;12351;52.284;9.160;2024-02-16T13:26:31;4.03;;;2.30;;
24206;SDS011;12351;52.284;9.160;2024-02-16T13:29:18;6.00;;;2.20;;
24206;SDS011;12351;52.284;9.160;2024-02-16T13:32:05;5.08;;;2.47;;
24206;SDS011;12351;52.284;9.160;2024-02-16T13:34:53;5.17;;;2.55;;
24206;SDS011;12351;52.284;9.160;2024-02-16T13:37:40;7.75;;;2.70;;
24206;SDS011;12351;52.284;9.160;2024-02-16T13:40:28;3.47;;;2.50;;
24206;SDS011;12351;52.284;9.160;2024-02-16T13:43:15;4.60;;;2.50;;
24206;SDS011;12351;52.284;9.160;2024-02-16T13:46:03;5.33;;;2.67;;
24206;SDS011;12351;52.284;9.160;2024-02-16T13:48:50;5.05;;;2.60;;
24206;SDS011;12351;52.284;9.160;2024-02-16T13:51:37;4.95;;;2.62;;
24206;SDS011;12351;52.284;9.160;2024-02-16T13:57:13;9.20;;;3.30;;
24206;SDS011;12351;52.284;9.160;2024-02-16T14:00:00;5.58;;;3.20;;
24206;SDS011;12351;52.284;9.160;2024-02-16T14:02:48;7.37;;;3.77;;
24206;SDS011;12351;52.284;9.160;2024-02-16T14:05:36;7.53;;;4.33;;
24206;SDS011;12351;52.284;9.160;2024-02-16T14:08:24;7.72;;;5.03;;
24206;SDS011;12351;52.284;9.160;2024-02-16T14:11:12;11.00;;;5.30;;
24206;SDS011;12351;52.284;9.160;2024-02-16T14:13:59;10.30;;;5.28;;
24206;SDS011;12351;52.284;9.160;2024-02-16T14:16:47;9.50;;;5.83;;
24206;SDS011;12351;52.284;9.160;2024-02-16T14:19:34;7.67;;;5.12;;
24206;SDS011;12351;52.284;9.160;2024-02-16T14:22:23;10.50;;;5.70;;
24206;SDS011;12351;52.284;9.160;2024-02-16T14:25:11;8.13;;;5.33;;
24206;SDS011;12351;52.284;9.160;2024-02-16T14:27:58;10.40;;;6.03;;
24206;SDS011;12351;52.284;9.160;2024-02-16T14:30:45;9.23;;;5.95;;
24206;SDS011;12351;52.284;9.160;2024-02-16T14:33:33;8.23;;;6.30;;
24206;SDS011;12351;52.284;9.160;2024-02-16T14:36:21;13.35;;;6.37;;
24206;SDS011;12351;52.284;9.160;2024-02-16T14:39:08;8.60;;;5.62;;
24206;SDS011;12351;52.284;9.160;2024-02-16T14:41:56;9.08;;;6.25;;
24206;SDS011;12351;52.284;9.160;2024-02-16T14:44:43;8.98;;;5.95;;
24206;SDS011;12351;52.284;9.160;2024-02-16T14:47:31;10.38;;;6.10;;
24206;SDS011;12351;52.284;9.160;2024-02-16T14:50:24;8.78;;;6.15;;
24206;SDS011;12351;52.284;9.160;2024-02-16T14:53:11;11.85;;;5.65;;
24206;SDS011;12351;52.284;9.160;2024-02-16T14:55:59;10.03;;;6.40;;
24206;SDS011;12351;52.284;9.160;2024-02-16T14:58:46;8.85;;;6.58;;
24206;SDS011;12351;52.284;9.160;2024-02-16T15:01:33;10.75;;;6.60;;
24206;SDS011;12351;52.284;9.160;2024-02-16T15:04:20;9.50;;;6.42;;
24206;SDS011;12351;52.284;9.160;2024-02-16T15:07:09;10.38;;;7.20;;
24206;SDS011;12351;52.284;9.160;2024-02-16T15:09:56;11.08;;;7.28;;
24206;SDS011;12351;52.284;9.160;2024-02-16T15:12:43;10.88;;;7.20;;
24206;SDS011;12351;52.284;9.160;2024-02-16T15:15:30;12.25;;;7.75;;
24206;SDS011;12351;52.284;9.160;2024-02-16T15:18:17;11.88;;;7.83;;
24206;SDS011;12351;52.284;9.160;2024-02-16T15:21:05;11.40;;;7.92;;
24206;SDS011;12351;52.284;9.160;2024-02-16T15:23:52;12.45;;;8.88;;
24206;SDS011;12351;52.284;9.160;2024-02-16T15:26:40;17.70;;;9.40;;
24206;SDS011;12351;52.284;9.160;2024-02-16T15:29:27;12.15;;;8.98;;
24206;SDS011;12351;52.284;9.160;2024-02-16T15:32:14;11.93;;;10.05;;
24206;SDS011;12351;52.284;9.160;2024-02-16T15:35:02;15.18;;;10.03;;
24206;SDS011;12351;52.284;9.160;2024-02-16T15:37:49;14.85;;;10.48;;
24206;SDS011;12351;52.284;9.160;2024-02-16T15:40:37;13.60;;;10.30;;
24206;SDS011;12351;52.284;9.160;2024-02-16T15:43:24;12.90;;;9.03;;
24206;SDS011;12351;52.284;9.160;2024-02-16T15:46:13;13.25;;;9.18;;
24206;SDS011;12351;52.284;9.160;2024-02-16T15:49:00;14.87;;;8.95;;
24206;SDS011;12351;52.284;9.160;2024-02-16T15:51:49;11.73;;;8.98;;
24206;SDS011;12351;52.284;9.160;2024-02-16T15:54:36;12.80;;;8.33;;
24206;SDS011;12351;52.284;9.160;2024-02-16T15:57:24;9.53;;;7.45;;
24206;SDS011;12351;52.284;9.160;2024-02-16T16:00:11;12.40;;;7.78;;
24206;SDS011;12351;52.284;9.160;2024-02-16T16:02:59;10.65;;;7.03;;
24206;SDS011;12351;52.284;9.160;2024-02-16T16:05:47;10.58;;;6.80;;
24206;SDS011;12351;52.284;9.160;2024-02-16T16:08:35;10.25;;;7.10;;
24206;SDS011;12351;52.284;9.160;2024-02-16T16:11:22;9.83;;;6.80;;
24206;SDS011;12351;52.284;9.160;2024-02-16T16:14:09;10.32;;;6.60;;
24206;SDS011;12351;52.284;9.160;2024-02-16T16:16:56;8.35;;;6.10;;
24206;SDS011;12351;52.284;9.160;2024-02-16T16:19:43;9.18;;;5.67;;
24206;SDS011;12351;52.284;9.160;2024-02-16T16:22:31;7.65;;;5.60;;
24206;SDS011;12351;52.284;9.160;2024-02-16T16:25:19;8.53;;;5.37;;
24206;SDS011;12351;52.284;9.160;2024-02-16T16:28:06;7.60;;;4.97;;
24206;SDS011;12351;52.284;9.160;2024-02-16T16:30:53;7.15;;;4.67;;
24206;SDS011;12351;52.284;9.160;2024-02-16T16:33:40;7.22;;;4.45;;
24206;SDS011;12351;52.284;9.160;2024-02-16T16:36:27;6.25;;;4.20;;
24206;SDS011;12351;52.284;9.160;2024-02-16T16:39:14;9.58;;;4.47;;
24206;SDS011;12351;52.284;9.160;2024-02-16T16:42:02;7.03;;;3.98;;
24206;SDS011;12351;52.284;9.160;2024-02-16T16:44:49;4.50;;;3.72;;
24206;SDS011;12351;52.284;9.160;2024-02-16T16:47:37;6.03;;;3.83;;
24206;SDS011;12351;52.284;9.160;2024-02-16T16:50:24;6.28;;;3.90;;
24206;SDS011;12351;52.284;9.160;2024-02-16T16:53:11;6.70;;;3.92;;
24206;SDS011;12351;52.284;9.160;2024-02-16T16:55:58;4.35;;;3.72;;
24206;SDS011;12351;52.284;9.160;2024-02-16T16:58:45;4.95;;;3.80;;
24206;SDS011;12351;52.284;9.160;2024-02-16T17:01:33;6.60;;;3.92;;
24206;SDS011;12351;52.284;9.160;2024-02-16T17:04:21;5.45;;;3.65;;